sensor_id;sensor_type;location;lat;lon;timestamp;temperature;humidity
16417;DHT22;8317;52.186;5.688;2022-11-30T00:00:14;7.50;99.90
16417;DHT22;8317;52.186;5.688;2022-11-30T00:02:41;7.60;99.90
16417;DHT22;8317;52.186;5.688;2022-11-30T00:05:08;7.60;99.90
16417;DHT22;8317;52.186;5.688;2022-11-30T00:07:36;7.60;99.90
16417;DHT22;8317;52.186;5.688;2022-11-30T00:10:03;7.60;99.90
16417;DHT22;8317;52.186;5.688;2022-11-30T00:12:30;7.60;99.90
16417;DHT22;8317;52.186;5.688;2022-11-30T00:14:58;7.50;99.90
16417;DHT22;8317;52.186;5.688;2022-11-30T00:17:25;7.50;99.90
16417;DHT22;8317;52.186;5.688;2022-11-30T00:19:52;7.50;99.90
16417;DHT22;8317;52.186;5.688;2022-11-30T00:22:19;7.40;99.90
16417;DHT22;8317;52.186;5.688;2022-11-30T00:24:46;7.50;99.90
16417;DHT22;8317;52.186;5.688;2022-11-30T00:27:13;7.40;99.90
16417;DHT22;8317;52.186;5.688;2022-11-30T00:29:39;7.50;99.90
16417;DHT22;8317;52.186;5.688;2022-11-30T00:32:08;7.50;99.90
16417;DHT22;8317;52.186;5.688;2022-11-30T00:34:34;7.40;99.90
16417;DHT22;8317;52.186;5.688;2022-11-30T00:37:01;7.50;99.90
16417;DHT22;8317;52.186;5.688;2022-11-30T00:39:28;7.50;99.90
16417;DHT22;8317;52.186;5.688;2022-11-30T00:41:55;7.40;99.90
16417;DHT22;8317;52.186;5.688;2022-11-30T00:44:22;7.40;99.90
16417;DHT22;8317;52.186;5.688;2022-11-30T00:46:49;7.50;99.90
16417;DHT22;8317;52.186;5.688;2022-11-30T00:49:17;7.50;99.90
16417;DHT22;8317;52.186;5.688;2022-11-30T00:51:44;7.50;99.90
16417;DHT22;8317;52.186;5.688;2022-11-30T00:54:11;7.50;99.90
16417;DHT22;8317;52.186;5.688;2022-11-30T00:56:38;7.50;99.90
16417;DHT22;8317;52.186;5.688;2022-11-30T00:59:05;7.50;99.90
16417;DHT22;8317;52.186;5.688;2022-11-30T01:01:32;7.50;99.90
16417;DHT22;8317;52.186;5.688;2022-11-30T01:04:00;7.40;99.90
16417;DHT22;8317;52.186;5.688;2022-11-30T01:06:28;7.40;99.90
16417;DHT22;8317;52.186;5.688;2022-11-30T01:08:56;7.30;99.90
16417;DHT22;8317;52.186;5.688;2022-11-30T01:11:24;7.40;99.90
16417;DHT22;8317;52.186;5.688;2022-11-30T01:13:52;7.30;99.90
16417;DHT22;8317;52.186;5.688;2022-11-30T01:16:21;7.40;99.90
16417;DHT22;8317;52.186;5.688;2022-11-30T01:18:48;7.30;99.90
16417;DHT22;8317;52.186;5.688;2022-11-30T01:21:17;7.30;99.90
16417;DHT22;8317;52.186;5.688;2022-11-30T01:23:46;7.30;99.90
16417;DHT22;8317;52.186;5.688;2022-11-30T01:26:13;7.30;99.90
16417;DHT22;8317;52.186;5.688;2022-11-30T01:28:40;7.30;99.90
16417;DHT22;8317;52.186;5.688;2022-11-30T01:31:10;7.30;99.90
16417;DHT22;8317;52.186;5.688;2022-11-30T01:33:37;7.30;99.90
16417;DHT22;8317;52.186;5.688;2022-11-30T01:36:08;7.30;99.90
16417;DHT22;8317;52.186;5.688;2022-11-30T01:38:37;7.20;99.90
16417;DHT22;8317;52.186;5.688;2022-11-30T01:41:07;7.20;99.90
16417;DHT22;8317;52.186;5.688;2022-11-30T01:43:39;7.30;99.90
16417;DHT22;8317;52.186;5.688;2022-11-30T01:46:21;7.30;99.90
16417;DHT22;8317;52.186;5.688;2022-11-30T01:48:55;7.30;99.90
16417;DHT22;8317;52.186;5.688;2022-11-30T01:51:26;7.20;99.90
16417;DHT22;8317;52.186;5.688;2022-11-30T01:53:56;7.20;99.90
16417;DHT22;8317;52.186;5.688;2022-11-30T01:56:24;7.20;99.90
16417;DHT22;8317;52.186;5.688;2022-11-30T01:58:51;7.20;99.90
16417;DHT22;8317;52.186;5.688;2022-11-30T02:01:18;7.20;99.90
16417;DHT22;8317;52.186;5.688;2022-11-30T02:03:51;7.20;99.90
16417;DHT22;8317;52.186;5.688;2022-11-30T02:06:20;7.20;99.90
16417;DHT22;8317;52.186;5.688;2022-11-30T02:08:47;7.20;99.90
16417;DHT22;8317;52.186;5.688;2022-11-30T02:11:14;7.20;99.90
16417;DHT22;8317;52.186;5.688;2022-11-30T02:14:02;7.20;99.90
16417;DHT22;8317;52.186;5.688;2022-11-30T02:16:38;7.20;99.90
16417;DHT22;8317;52.186;5.688;2022-11-30T02:19:21;7.20;99.90
16417;DHT22;8317;52.186;5.688;2022-11-30T02:21:58;7.20;99.90
16417;DHT22;8317;52.186;5.688;2022-11-30T02:24:42;7.20;99.90
16417;DHT22;8317;52.186;5.688;2022-11-30T02:27:25;7.20;99.90
16417;DHT22;8317;52.186;5.688;2022-11-30T02:29:58;7.20;99.90
16417;DHT22;8317;52.186;5.688;2022-11-30T02:32:30;7.30;99.90
16417;DHT22;8317;52.186;5.688;2022-11-30T02:35:02;7.20;99.90
16417;DHT22;8317;52.186;5.688;2022-11-30T02:37:30;7.30;99.90
16417;DHT22;8317;52.186;5.688;2022-11-30T02:39:57;7.30;99.90
16417;DHT22;8317;52.186;5.688;2022-11-30T02:42:24;7.20;99.90
16417;DHT22;8317;52.186;5.688;2022-11-30T02:44:52;7.30;99.90
16417;DHT22;8317;52.186;5.688;2022-11-30T02:47:23;7.20;99.90
16417;DHT22;8317;52.186;5.688;2022-11-30T02:49:56;7.30;99.90
16417;DHT22;8317;52.186;5.688;2022-11-30T02:52:27;7.20;99.90
16417;DHT22;8317;52.186;5.688;2022-11-30T02:54:58;7.20;99.90
16417;DHT22;8317;52.186;5.688;2022-11-30T02:57:25;7.20;99.90
16417;DHT22;8317;52.186;5.688;2022-11-30T02:59:52;7.30;99.90
16417;DHT22;8317;52.186;5.688;2022-11-30T03:02:19;7.30;99.90
16417;DHT22;8317;52.186;5.688;2022-11-30T03:04:47;7.20;99.90
16417;DHT22;8317;52.186;5.688;2022-11-30T03:07:14;7.20;99.90
16417;DHT22;8317;52.186;5.688;2022-11-30T03:09:41;7.30;99.90
16417;DHT22;8317;52.186;5.688;2022-11-30T03:12:08;7.20;99.90
16417;DHT22;8317;52.186;5.688;2022-11-30T03:14:35;7.20;99.90
16417;DHT22;8317;52.186;5.688;2022-11-30T03:17:02;7.30;99.90
16417;DHT22;8317;52.186;5.688;2022-11-30T03:19:30;7.30;99.90
16417;DHT22;8317;52.186;5.688;2022-11-30T03:21:58;7.30;99.90
16417;DHT22;8317;52.186;5.688;2022-11-30T03:24:25;7.30;99.90
16417;DHT22;8317;52.186;5.688;2022-11-30T03:26:52;7.20;99.90
16417;DHT22;8317;52.186;5.688;2022-11-30T03:29:19;7.30;99.90
16417;DHT22;8317;52.186;5.688;2022-11-30T03:31:46;7.30;99.90
16417;DHT22;8317;52.186;5.688;2022-11-30T03:34:13;7.30;99.90
16417;DHT22;8317;52.186;5.688;2022-11-30T03:36:40;7.20;99.90
16417;DHT22;8317;52.186;5.688;2022-11-30T03:39:08;7.20;99.90
16417;DHT22;8317;52.186;5.688;2022-11-30T03:41:35;7.20;99.90
16417;DHT22;8317;52.186;5.688;2022-11-30T03:44:02;7.20;99.90
16417;DHT22;8317;52.186;5.688;2022-11-30T03:46:29;7.20;99.90
16417;DHT22;8317;52.186;5.688;2022-11-30T03:48:55;7.20;99.90
16417;DHT22;8317;52.186;5.688;2022-11-30T03:51:22;7.20;99.90
16417;DHT22;8317;52.186;5.688;2022-11-30T03:53:49;7.20;99.90
16417;DHT22;8317;52.186;5.688;2022-11-30T03:56:17;7.20;99.90
16417;DHT22;8317;52.186;5.688;2022-11-30T03:58:44;7.20;99.90
16417;DHT22;8317;52.186;5.688;2022-11-30T04:01:14;7.10;99.90
16417;DHT22;8317;52.186;5.688;2022-11-30T04:03:41;7.10;99.90
16417;DHT22;8317;52.186;5.688;2022-11-30T04:06:10;7.20;99.90
16417;DHT22;8317;52.186;5.688;2022-11-30T04:08:38;7.10;99.90
16417;DHT22;8317;52.186;5.688;2022-11-30T04:11:05;7.10;99.90
16417;DHT22;8317;52.186;5.688;2022-11-30T04:13:35;7.10;99.90
16417;DHT22;8317;52.186;5.688;2022-11-30T04:16:02;7.00;99.90
16417;DHT22;8317;52.186;5.688;2022-11-30T04:18:31;7.00;99.90
16417;DHT22;8317;52.186;5.688;2022-11-30T04:20:59;7.00;99.90
16417;DHT22;8317;52.186;5.688;2022-11-30T04:23:29;7.00;99.90
16417;DHT22;8317;52.186;5.688;2022-11-30T04:25:57;7.00;99.90
16417;DHT22;8317;52.186;5.688;2022-11-30T04:28:24;7.00;99.90
16417;DHT22;8317;52.186;5.688;2022-11-30T04:30:53;6.90;99.90
16417;DHT22;8317;52.186;5.688;2022-11-30T04:33:20;6.90;99.90
16417;DHT22;8317;52.186;5.688;2022-11-30T04:35:48;6.90;99.90
16417;DHT22;8317;52.186;5.688;2022-11-30T04:38:16;6.70;99.90
16417;DHT22;8317;52.186;5.688;2022-11-30T04:40:43;6.70;99.90
16417;DHT22;8317;52.186;5.688;2022-11-30T04:43:11;6.60;99.90
16417;DHT22;8317;52.186;5.688;2022-11-30T04:45:39;6.50;99.90
16417;DHT22;8317;52.186;5.688;2022-11-30T04:48:07;6.50;99.90
16417;DHT22;8317;52.186;5.688;2022-11-30T04:50:35;6.50;99.90
16417;DHT22;8317;52.186;5.688;2022-11-30T04:53:02;6.50;99.90
16417;DHT22;8317;52.186;5.688;2022-11-30T04:55:29;6.40;99.90
16417;DHT22;8317;52.186;5.688;2022-11-30T04:57:56;6.40;99.90
16417;DHT22;8317;52.186;5.688;2022-11-30T05:00:22;6.40;99.90
16417;DHT22;8317;52.186;5.688;2022-11-30T05:02:50;6.40;99.90
16417;DHT22;8317;52.186;5.688;2022-11-30T05:05:18;6.40;99.90
16417;DHT22;8317;52.186;5.688;2022-11-30T05:07:48;6.30;99.90
16417;DHT22;8317;52.186;5.688;2022-11-30T05:10:16;6.20;99.90
16417;DHT22;8317;52.186;5.688;2022-11-30T05:12:43;6.20;99.90
16417;DHT22;8317;52.186;5.688;2022-11-30T05:15:10;6.20;99.90
16417;DHT22;8317;52.186;5.688;2022-11-30T05:17:37;6.20;99.90
16417;DHT22;8317;52.186;5.688;2022-11-30T05:20:05;6.30;99.90
16417;DHT22;8317;52.186;5.688;2022-11-30T05:22:33;6.20;99.90
16417;DHT22;8317;52.186;5.688;2022-11-30T05:25:00;6.20;99.90
16417;DHT22;8317;52.186;5.688;2022-11-30T05:27:27;6.20;99.90
16417;DHT22;8317;52.186;5.688;2022-11-30T05:29:54;6.10;99.90
16417;DHT22;8317;52.186;5.688;2022-11-30T05:32:21;6.20;99.90
16417;DHT22;8317;52.186;5.688;2022-11-30T05:34:48;6.10;99.90
16417;DHT22;8317;52.186;5.688;2022-11-30T05:37:15;6.10;99.90
16417;DHT22;8317;52.186;5.688;2022-11-30T05:39:43;6.00;99.90
16417;DHT22;8317;52.186;5.688;2022-11-30T05:42:10;6.00;99.90
16417;DHT22;8317;52.186;5.688;2022-11-30T05:44:37;6.00;99.90
16417;DHT22;8317;52.186;5.688;2022-11-30T05:47:04;5.90;99.90
16417;DHT22;8317;52.186;5.688;2022-11-30T05:49:31;5.80;99.90
16417;DHT22;8317;52.186;5.688;2022-11-30T05:51:57;5.80;99.90
16417;DHT22;8317;52.186;5.688;2022-11-30T05:54:24;5.80;99.90
16417;DHT22;8317;52.186;5.688;2022-11-30T05:56:53;5.60;99.90
16417;DHT22;8317;52.186;5.688;2022-11-30T05:59:19;5.60;99.90
16417;DHT22;8317;52.186;5.688;2022-11-30T06:01:46;5.60;99.90
16417;DHT22;8317;52.186;5.688;2022-11-30T06:04:13;5.50;99.90
16417;DHT22;8317;52.186;5.688;2022-11-30T06:06:40;5.50;99.90
16417;DHT22;8317;52.186;5.688;2022-11-30T06:09:07;5.40;99.90
16417;DHT22;8317;52.186;5.688;2022-11-30T06:11:34;5.50;99.90
16417;DHT22;8317;52.186;5.688;2022-11-30T06:14:02;5.40;99.90
16417;DHT22;8317;52.186;5.688;2022-11-30T06:16:29;5.40;99.90
16417;DHT22;8317;52.186;5.688;2022-11-30T06:18:56;5.40;99.90
16417;DHT22;8317;52.186;5.688;2022-11-30T06:21:23;5.40;99.90
16417;DHT22;8317;52.186;5.688;2022-11-30T06:23:50;5.40;99.90
16417;DHT22;8317;52.186;5.688;2022-11-30T06:26:17;5.30;99.90
16417;DHT22;8317;52.186;5.688;2022-11-30T06:28:43;5.30;99.90
16417;DHT22;8317;52.186;5.688;2022-11-30T06:31:12;5.30;99.90
16417;DHT22;8317;52.186;5.688;2022-11-30T06:33:39;5.30;99.90
16417;DHT22;8317;52.186;5.688;2022-11-30T06:36:06;5.20;99.90
16417;DHT22;8317;52.186;5.688;2022-11-30T06:38:33;4.90;99.90
16417;DHT22;8317;52.186;5.688;2022-11-30T06:41:04;5.00;99.90
16417;DHT22;8317;52.186;5.688;2022-11-30T06:43:33;5.00;99.90
16417;DHT22;8317;52.186;5.688;2022-11-30T06:46:00;5.00;99.90
16417;DHT22;8317;52.186;5.688;2022-11-30T06:48:29;4.70;99.90
16417;DHT22;8317;52.186;5.688;2022-11-30T06:50:56;4.70;99.90
16417;DHT22;8317;52.186;5.688;2022-11-30T06:53:23;4.80;99.90
16417;DHT22;8317;52.186;5.688;2022-11-30T06:55:50;4.70;99.90
16417;DHT22;8317;52.186;5.688;2022-11-30T06:58:17;4.70;99.90
16417;DHT22;8317;52.186;5.688;2022-11-30T07:00:44;4.70;99.90
16417;DHT22;8317;52.186;5.688;2022-11-30T07:03:11;4.70;99.90
16417;DHT22;8317;52.186;5.688;2022-11-30T07:05:42;4.70;99.90
16417;DHT22;8317;52.186;5.688;2022-11-30T07:08:09;4.60;99.90
16417;DHT22;8317;52.186;5.688;2022-11-30T07:10:38;4.60;99.90
16417;DHT22;8317;52.186;5.688;2022-11-30T07:13:09;4.60;99.90
16417;DHT22;8317;52.186;5.688;2022-11-30T07:15:36;4.60;99.90
16417;DHT22;8317;52.186;5.688;2022-11-30T07:18:03;4.40;99.90
16417;DHT22;8317;52.186;5.688;2022-11-30T07:20:30;4.20;99.90
16417;DHT22;8317;52.186;5.688;2022-11-30T07:22:59;4.20;99.90
16417;DHT22;8317;52.186;5.688;2022-11-30T07:25:46;4.20;99.90
16417;DHT22;8317;52.186;5.688;2022-11-30T07:28:31;4.20;99.90
16417;DHT22;8317;52.186;5.688;2022-11-30T07:30:58;4.20;99.90
16417;DHT22;8317;52.186;5.688;2022-11-30T07:33:25;4.30;99.90
16417;DHT22;8317;52.186;5.688;2022-11-30T07:35:52;4.20;99.90
16417;DHT22;8317;52.186;5.688;2022-11-30T07:38:20;4.20;99.90
16417;DHT22;8317;52.186;5.688;2022-11-30T07:40:47;4.20;99.90
16417;DHT22;8317;52.186;5.688;2022-11-30T07:43:14;4.20;99.90
16417;DHT22;8317;52.186;5.688;2022-11-30T07:45:42;4.10;99.90
16417;DHT22;8317;52.186;5.688;2022-11-30T07:48:09;4.10;99.90
16417;DHT22;8317;52.186;5.688;2022-11-30T07:50:35;4.20;99.90
16417;DHT22;8317;52.186;5.688;2022-11-30T07:53:02;4.20;99.90
16417;DHT22;8317;52.186;5.688;2022-11-30T07:55:31;4.30;99.90
16417;DHT22;8317;52.186;5.688;2022-11-30T07:57:58;4.30;99.90
16417;DHT22;8317;52.186;5.688;2022-11-30T08:00:25;4.20;99.90
16417;DHT22;8317;52.186;5.688;2022-11-30T08:02:52;4.30;99.90
16417;DHT22;8317;52.186;5.688;2022-11-30T08:05:19;4.20;99.90
16417;DHT22;8317;52.186;5.688;2022-11-30T08:07:49;4.30;99.90
16417;DHT22;8317;52.186;5.688;2022-11-30T08:10:17;4.40;99.90
16417;DHT22;8317;52.186;5.688;2022-11-30T08:12:46;4.40;99.90
16417;DHT22;8317;52.186;5.688;2022-11-30T08:15:13;4.50;99.90
16417;DHT22;8317;52.186;5.688;2022-11-30T08:17:40;4.40;99.90
16417;DHT22;8317;52.186;5.688;2022-11-30T08:20:08;4.40;99.90
16417;DHT22;8317;52.186;5.688;2022-11-30T08:22:36;4.50;99.90
16417;DHT22;8317;52.186;5.688;2022-11-30T08:25:03;4.40;99.90
16417;DHT22;8317;52.186;5.688;2022-11-30T08:27:30;4.20;99.90
16417;DHT22;8317;52.186;5.688;2022-11-30T08:29:59;4.10;99.90
16417;DHT22;8317;52.186;5.688;2022-11-30T08:32:25;4.20;99.90
16417;DHT22;8317;52.186;5.688;2022-11-30T08:34:52;4.30;99.90
16417;DHT22;8317;52.186;5.688;2022-11-30T08:37:19;4.50;99.90
16417;DHT22;8317;52.186;5.688;2022-11-30T08:39:46;4.60;99.90
16417;DHT22;8317;52.186;5.688;2022-11-30T08:42:13;4.70;99.90
16417;DHT22;8317;52.186;5.688;2022-11-30T08:44:40;4.80;99.90
16417;DHT22;8317;52.186;5.688;2022-11-30T08:47:08;4.90;99.90
16417;DHT22;8317;52.186;5.688;2022-11-30T08:49:35;5.00;99.90
16417;DHT22;8317;52.186;5.688;2022-11-30T08:52:02;5.10;99.90
16417;DHT22;8317;52.186;5.688;2022-11-30T08:54:29;5.10;99.90
16417;DHT22;8317;52.186;5.688;2022-11-30T08:56:55;5.20;99.90
16417;DHT22;8317;52.186;5.688;2022-11-30T08:59:23;5.30;99.90
16417;DHT22;8317;52.186;5.688;2022-11-30T09:01:50;5.40;99.90
16417;DHT22;8317;52.186;5.688;2022-11-30T09:04:18;5.50;99.90
16417;DHT22;8317;52.186;5.688;2022-11-30T09:06:45;5.60;99.90
16417;DHT22;8317;52.186;5.688;2022-11-30T09:09:12;5.60;99.90
16417;DHT22;8317;52.186;5.688;2022-11-30T09:11:39;5.70;99.90
16417;DHT22;8317;52.186;5.688;2022-11-30T09:14:06;5.70;99.90
16417;DHT22;8317;52.186;5.688;2022-11-30T09:16:33;5.80;99.90
16417;DHT22;8317;52.186;5.688;2022-11-30T09:19:00;5.90;99.90
16417;DHT22;8317;52.186;5.688;2022-11-30T09:21:29;6.10;99.90
16417;DHT22;8317;52.186;5.688;2022-11-30T09:23:56;6.50;99.90
16417;DHT22;8317;52.186;5.688;2022-11-30T09:26:23;6.70;99.90
16417;DHT22;8317;52.186;5.688;2022-11-30T09:28:50;7.00;99.90
16417;DHT22;8317;52.186;5.688;2022-11-30T09:31:19;7.20;99.90
16417;DHT22;8317;52.186;5.688;2022-11-30T09:33:47;7.40;99.90
16417;DHT22;8317;52.186;5.688;2022-11-30T09:36:16;7.60;99.90
16417;DHT22;8317;52.186;5.688;2022-11-30T09:38:45;7.80;99.90
16417;DHT22;8317;52.186;5.688;2022-11-30T09:44:18;8.30;99.90
16417;DHT22;8317;52.186;5.688;2022-11-30T09:46:51;8.50;99.90
16417;DHT22;8317;52.186;5.688;2022-11-30T09:49:22;8.80;99.90
16417;DHT22;8317;52.186;5.688;2022-11-30T09:51:51;9.00;99.90
16417;DHT22;8317;52.186;5.688;2022-11-30T09:54:24;9.20;99.90
16417;DHT22;8317;52.186;5.688;2022-11-30T09:57:00;9.40;99.90
16417;DHT22;8317;52.186;5.688;2022-11-30T09:59:30;9.60;99.90
16417;DHT22;8317;52.186;5.688;2022-11-30T10:02:11;9.80;99.90
16417;DHT22;8317;52.186;5.688;2022-11-30T10:04:39;10.10;99.90
16417;DHT22;8317;52.186;5.688;2022-11-30T10:07:12;10.50;99.90
16417;DHT22;8317;52.186;5.688;2022-11-30T10:09:50;10.80;99.90
16417;DHT22;8317;52.186;5.688;2022-11-30T10:12:22;10.90;99.90
16417;DHT22;8317;52.186;5.688;2022-11-30T10:15:07;11.10;99.90
16417;DHT22;8317;52.186;5.688;2022-11-30T10:17:41;11.40;99.90
16417;DHT22;8317;52.186;5.688;2022-11-30T10:20:31;11.60;99.90
16417;DHT22;8317;52.186;5.688;2022-11-30T10:23:12;11.90;99.90
16417;DHT22;8317;52.186;5.688;2022-11-30T10:25:50;12.00;99.90
16417;DHT22;8317;52.186;5.688;2022-11-30T10:28:27;12.20;99.90
16417;DHT22;8317;52.186;5.688;2022-11-30T10:30:56;12.30;99.90
16417;DHT22;8317;52.186;5.688;2022-11-30T10:33:28;12.40;99.90
16417;DHT22;8317;52.186;5.688;2022-11-30T10:35:59;12.50;99.90
16417;DHT22;8317;52.186;5.688;2022-11-30T10:38:32;12.50;99.90
16417;DHT22;8317;52.186;5.688;2022-11-30T10:41:09;12.50;99.90
16417;DHT22;8317;52.186;5.688;2022-11-30T10:43:41;12.50;99.90
16417;DHT22;8317;52.186;5.688;2022-11-30T10:46:17;12.00;99.90
16417;DHT22;8317;52.186;5.688;2022-11-30T10:48:48;11.70;99.90
16417;DHT22;8317;52.186;5.688;2022-11-30T10:51:17;11.30;99.90
16417;DHT22;8317;52.186;5.688;2022-11-30T10:53:44;11.10;99.90
16417;DHT22;8317;52.186;5.688;2022-11-30T10:56:13;11.00;99.90
16417;DHT22;8317;52.186;5.688;2022-11-30T10:58:47;11.00;99.90
16417;DHT22;8317;52.186;5.688;2022-11-30T11:01:31;11.00;99.90
16417;DHT22;8317;52.186;5.688;2022-11-30T11:04:12;11.10;99.90
16417;DHT22;8317;52.186;5.688;2022-11-30T11:06:42;11.00;99.90
16417;DHT22;8317;52.186;5.688;2022-11-30T11:09:30;10.80;99.90
16417;DHT22;8317;52.186;5.688;2022-11-30T11:12:00;10.60;99.90
16417;DHT22;8317;52.186;5.688;2022-11-30T11:14:28;10.40;99.90
16417;DHT22;8317;52.186;5.688;2022-11-30T11:16:57;10.40;99.90
16417;DHT22;8317;52.186;5.688;2022-11-30T11:19:33;10.40;99.90
16417;DHT22;8317;52.186;5.688;2022-11-30T11:22:02;10.30;99.90
16417;DHT22;8317;52.186;5.688;2022-11-30T11:24:29;10.30;99.90
16417;DHT22;8317;52.186;5.688;2022-11-30T11:26:56;10.20;99.90
16417;DHT22;8317;52.186;5.688;2022-11-30T11:29:27;10.10;99.90
16417;DHT22;8317;52.186;5.688;2022-11-30T11:32:20;10.10;99.90
16417;DHT22;8317;52.186;5.688;2022-11-30T11:34:47;10.40;99.90
16417;DHT22;8317;52.186;5.688;2022-11-30T11:37:21;10.30;99.90
16417;DHT22;8317;52.186;5.688;2022-11-30T11:39:59;10.30;99.90
16417;DHT22;8317;52.186;5.688;2022-11-30T11:42:29;10.50;99.90
16417;DHT22;8317;52.186;5.688;2022-11-30T11:44:59;10.40;99.90
16417;DHT22;8317;52.186;5.688;2022-11-30T11:47:32;10.40;99.90
16417;DHT22;8317;52.186;5.688;2022-11-30T11:50:16;10.30;99.90
16417;DHT22;8317;52.186;5.688;2022-11-30T11:52:44;10.40;99.90
16417;DHT22;8317;52.186;5.688;2022-11-30T11:55:15;10.30;99.90
16417;DHT22;8317;52.186;5.688;2022-11-30T11:57:48;10.10;99.90
16417;DHT22;8317;52.186;5.688;2022-11-30T12:00:20;10.20;99.90
16417;DHT22;8317;52.186;5.688;2022-11-30T12:02:52;10.10;99.90
16417;DHT22;8317;52.186;5.688;2022-11-30T12:05:23;10.10;99.90
16417;DHT22;8317;52.186;5.688;2022-11-30T12:08:02;10.00;99.90
16417;DHT22;8317;52.186;5.688;2022-11-30T12:10:35;9.80;99.90
16417;DHT22;8317;52.186;5.688;2022-11-30T12:13:10;9.60;99.90
16417;DHT22;8317;52.186;5.688;2022-11-30T12:15:56;9.40;99.90
16417;DHT22;8317;52.186;5.688;2022-11-30T12:18:31;9.20;99.90
16417;DHT22;8317;52.186;5.688;2022-11-30T12:21:03;9.10;99.90
16417;DHT22;8317;52.186;5.688;2022-11-30T12:26:50;9.50;99.90
16417;DHT22;8317;52.186;5.688;2022-11-30T12:29:36;10.00;99.90
16417;DHT22;8317;52.186;5.688;2022-11-30T12:32:19;10.40;99.90
16417;DHT22;8317;52.186;5.688;2022-11-30T12:35:01;10.80;99.90
16417;DHT22;8317;52.186;5.688;2022-11-30T12:37:38;11.40;99.90
16417;DHT22;8317;52.186;5.688;2022-11-30T12:40:18;11.60;99.90
16417;DHT22;8317;52.186;5.688;2022-11-30T12:42:52;11.60;99.90
16417;DHT22;8317;52.186;5.688;2022-11-30T12:45:25;11.20;99.90
16417;DHT22;8317;52.186;5.688;2022-11-30T12:48:00;11.00;99.90
16417;DHT22;8317;52.186;5.688;2022-11-30T12:50:42;11.40;99.90
16417;DHT22;8317;52.186;5.688;2022-11-30T12:53:19;11.50;99.90
16417;DHT22;8317;52.186;5.688;2022-11-30T12:55:58;11.80;99.90
16417;DHT22;8317;52.186;5.688;2022-11-30T12:58:34;12.10;99.90
16417;DHT22;8317;52.186;5.688;2022-11-30T13:01:11;12.50;99.90
16417;DHT22;8317;52.186;5.688;2022-11-30T13:03:54;12.80;99.90
16417;DHT22;8317;52.186;5.688;2022-11-30T13:06:29;12.60;99.90
16417;DHT22;8317;52.186;5.688;2022-11-30T13:09:02;12.40;99.90
16417;DHT22;8317;52.186;5.688;2022-11-30T13:11:34;12.10;99.90
16417;DHT22;8317;52.186;5.688;2022-11-30T13:14:05;11.90;99.90
16417;DHT22;8317;52.186;5.688;2022-11-30T13:16:35;11.30;99.90
16417;DHT22;8317;52.186;5.688;2022-11-30T13:19:26;10.80;99.90
16417;DHT22;8317;52.186;5.688;2022-11-30T13:21:58;10.40;99.90
16417;DHT22;8317;52.186;5.688;2022-11-30T13:24:33;10.20;99.90
16417;DHT22;8317;52.186;5.688;2022-11-30T13:27:07;10.00;99.90
16417;DHT22;8317;52.186;5.688;2022-11-30T13:29:52;9.80;99.90
16417;DHT22;8317;52.186;5.688;2022-11-30T13:32:21;9.70;99.90
16417;DHT22;8317;52.186;5.688;2022-11-30T13:34:50;9.60;99.90
16417;DHT22;8317;52.186;5.688;2022-11-30T13:37:18;9.50;99.90
16417;DHT22;8317;52.186;5.688;2022-11-30T13:39:48;9.50;99.90
16417;DHT22;8317;52.186;5.688;2022-11-30T13:42:37;9.40;99.90
16417;DHT22;8317;52.186;5.688;2022-11-30T13:45:26;9.30;99.90
16417;DHT22;8317;52.186;5.688;2022-11-30T13:47:56;9.20;99.90
16417;DHT22;8317;52.186;5.688;2022-11-30T13:50:31;9.10;99.90
16417;DHT22;8317;52.186;5.688;2022-11-30T13:53:19;9.10;99.90
16417;DHT22;8317;52.186;5.688;2022-11-30T13:55:54;9.10;99.90
16417;DHT22;8317;52.186;5.688;2022-11-30T13:58:22;9.00;99.90
16417;DHT22;8317;52.186;5.688;2022-11-30T14:06:55;9.00;99.90
16417;DHT22;8317;52.186;5.688;2022-11-30T14:12:58;8.90;99.90
16417;DHT22;8317;52.186;5.688;2022-11-30T14:18:21;8.80;99.90
16417;DHT22;8317;52.186;5.688;2022-11-30T14:20:52;8.80;99.90
16417;DHT22;8317;52.186;5.688;2022-11-30T14:23:26;8.70;99.90
16417;DHT22;8317;52.186;5.688;2022-11-30T14:25:58;8.70;99.90
16417;DHT22;8317;52.186;5.688;2022-11-30T14:28:32;8.70;99.90
16417;DHT22;8317;52.186;5.688;2022-11-30T14:31:00;8.70;99.90
16417;DHT22;8317;52.186;5.688;2022-11-30T14:33:34;8.70;99.90
16417;DHT22;8317;52.186;5.688;2022-11-30T14:36:06;8.60;99.90
16417;DHT22;8317;52.186;5.688;2022-11-30T14:38:38;8.70;99.90
16417;DHT22;8317;52.186;5.688;2022-11-30T14:41:05;8.60;99.90
16417;DHT22;8317;52.186;5.688;2022-11-30T14:43:32;8.70;99.90
16417;DHT22;8317;52.186;5.688;2022-11-30T14:46:01;8.60;99.90
16417;DHT22;8317;52.186;5.688;2022-11-30T14:48:28;8.50;99.90
16417;DHT22;8317;52.186;5.688;2022-11-30T14:50:57;8.50;99.90
16417;DHT22;8317;52.186;5.688;2022-11-30T14:53:35;8.50;99.90
16417;DHT22;8317;52.186;5.688;2022-11-30T14:56:11;8.40;99.90
16417;DHT22;8317;52.186;5.688;2022-11-30T14:58:44;8.40;99.90
16417;DHT22;8317;52.186;5.688;2022-11-30T15:01:17;8.40;99.90
16417;DHT22;8317;52.186;5.688;2022-11-30T15:03:45;8.30;99.90
16417;DHT22;8317;52.186;5.688;2022-11-30T15:06:14;8.30;99.90
16417;DHT22;8317;52.186;5.688;2022-11-30T15:08:45;8.20;99.90
16417;DHT22;8317;52.186;5.688;2022-11-30T15:11:14;8.20;99.90
16417;DHT22;8317;52.186;5.688;2022-11-30T15:13:43;8.30;99.90
16417;DHT22;8317;52.186;5.688;2022-11-30T15:16:17;8.30;99.90
16417;DHT22;8317;52.186;5.688;2022-11-30T15:18:45;8.20;99.90
16417;DHT22;8317;52.186;5.688;2022-11-30T15:21:14;8.20;99.90
16417;DHT22;8317;52.186;5.688;2022-11-30T15:23:44;8.20;99.90
16417;DHT22;8317;52.186;5.688;2022-11-30T15:26:14;8.20;99.90
16417;DHT22;8317;52.186;5.688;2022-11-30T15:28:44;8.30;99.90
16417;DHT22;8317;52.186;5.688;2022-11-30T15:31:17;8.20;99.90
16417;DHT22;8317;52.186;5.688;2022-11-30T15:33:45;8.30;99.90
16417;DHT22;8317;52.186;5.688;2022-11-30T15:36:13;8.30;99.90
16417;DHT22;8317;52.186;5.688;2022-11-30T15:38:41;8.20;99.90
16417;DHT22;8317;52.186;5.688;2022-11-30T15:41:18;8.20;99.90
16417;DHT22;8317;52.186;5.688;2022-11-30T15:43:48;8.20;99.90
16417;DHT22;8317;52.186;5.688;2022-11-30T15:46:33;8.20;99.90
16417;DHT22;8317;52.186;5.688;2022-11-30T15:49:14;8.20;99.90
16417;DHT22;8317;52.186;5.688;2022-11-30T15:51:42;8.20;99.90
16417;DHT22;8317;52.186;5.688;2022-11-30T15:54:10;8.10;99.90
16417;DHT22;8317;52.186;5.688;2022-11-30T15:56:38;8.10;99.90
16417;DHT22;8317;52.186;5.688;2022-11-30T15:59:16;8.10;99.90
16417;DHT22;8317;52.186;5.688;2022-11-30T16:01:52;8.00;99.90
16417;DHT22;8317;52.186;5.688;2022-11-30T16:04:26;8.00;99.90
16417;DHT22;8317;52.186;5.688;2022-11-30T16:06:53;8.00;99.90
16417;DHT22;8317;52.186;5.688;2022-11-30T16:09:22;7.90;99.90
16417;DHT22;8317;52.186;5.688;2022-11-30T16:11:54;7.90;99.90
16417;DHT22;8317;52.186;5.688;2022-11-30T16:14:22;7.80;99.90
16417;DHT22;8317;52.186;5.688;2022-11-30T16:16:49;7.80;99.90
16417;DHT22;8317;52.186;5.688;2022-11-30T16:19:17;7.80;99.90
16417;DHT22;8317;52.186;5.688;2022-11-30T16:21:44;7.70;99.90
16417;DHT22;8317;52.186;5.688;2022-11-30T16:24:13;7.70;99.90
16417;DHT22;8317;52.186;5.688;2022-11-30T16:26:40;7.60;99.90
16417;DHT22;8317;52.186;5.688;2022-11-30T16:29:08;7.60;99.90
16417;DHT22;8317;52.186;5.688;2022-11-30T16:31:35;7.60;99.90
16417;DHT22;8317;52.186;5.688;2022-11-30T16:34:03;7.60;99.90
16417;DHT22;8317;52.186;5.688;2022-11-30T16:36:36;7.50;99.90